createdAt,value
2017-09-04T03:30:49.205Z,4.97
2017-09-04T03:33:16.822Z,4.30
2017-09-04T03:35:44.805Z,3.73
2017-09-04T03:38:12.401Z,4.40
2017-09-04T03:40:39.996Z,3.40
2017-09-04T03:43:07.622Z,3.80
2017-09-04T03:45:35.218Z,3.93
2017-09-04T03:48:03.140Z,3.87
2017-09-04T03:50:30.739Z,4.73
2017-09-04T03:52:58.338Z,4.47
2017-09-04T03:55:25.971Z,5.20
2017-09-04T03:57:53.570Z,5.63
2017-09-04T04:00:21.688Z,5.00
2017-09-04T04:02:49.286Z,4.97
2017-09-04T04:05:16.890Z,5.18
2017-09-04T04:07:44.523Z,4.80
2017-09-04T04:10:12.135Z,4.67
2017-09-04T04:12:40.249Z,3.83
2017-09-04T04:15:07.857Z,4.60
2017-09-04T04:17:35.475Z,4.53
2017-09-04T04:20:03.108Z,4.70
2017-09-04T04:22:30.717Z,4.83
2017-09-04T04:24:58.971Z,5.80
2017-09-04T04:27:26.572Z,5.27
2017-09-04T04:29:54.169Z,7.20
2017-09-04T04:32:21.819Z,6.50
2017-09-04T04:34:49.425Z,6.20
2017-09-04T04:37:17.393Z,6.83
2017-09-04T04:39:45.006Z,6.60
2017-09-04T04:42:12.605Z,7.13
2017-09-04T04:44:40.261Z,6.60
2017-09-04T04:47:07.866Z,6.27
2017-09-04T04:49:35.910Z,6.17
2017-09-04T04:52:03.497Z,6.47
2017-09-04T04:54:31.093Z,6.60
2017-09-04T04:56:58.806Z,6.57
2017-09-04T04:59:26.419Z,6.80
2017-09-04T05:01:54.409Z,6.73
2017-09-04T05:04:22.025Z,6.70
2017-09-04T05:06:49.638Z,6.40
2017-09-04T05:09:17.837Z,6.67
2017-09-04T05:11:45.446Z,5.90
2017-09-04T05:14:13.045Z,5.50
2017-09-04T05:16:40.762Z,6.60
2017-09-04T05:19:08.457Z,5.80
2017-09-04T05:21:36.508Z,6.63
2017-09-04T05:24:04.119Z,6.53
2017-09-04T05:26:31.722Z,6.50
2017-09-04T05:28:59.341Z,6.37
2017-09-04T05:31:26.947Z,6.73
2017-09-04T05:33:54.921Z,6.17
2017-09-04T05:36:22.520Z,6.53
2017-09-04T05:38:50.121Z,6.33
2017-09-04T05:41:17.753Z,6.00
2017-09-04T05:43:45.352Z,6.40
2017-09-04T05:46:13.431Z,6.53
2017-09-04T05:48:41.018Z,5.43
2017-09-04T05:51:08.625Z,6.20
2017-09-04T05:53:36.239Z,5.30
2017-09-04T05:56:03.829Z,5.50
2017-09-04T05:58:31.956Z,6.07
2017-09-04T06:00:59.642Z,5.10
2017-09-04T06:03:27.244Z,5.53
2017-09-04T06:05:54.879Z,6.13
2017-09-04T06:08:22.520Z,6.93
2017-09-04T06:10:50.571Z,5.70
2017-09-04T06:13:18.188Z,6.13
2017-09-04T06:15:45.793Z,6.80
2017-09-04T06:18:13.405Z,5.70
2017-09-04T06:20:41.014Z,5.30
2017-09-04T06:23:09.086Z,5.70
2017-09-04T06:25:36.697Z,5.67
2017-09-04T06:28:04.307Z,6.00
2017-09-04T06:30:31.920Z,5.70
2017-09-04T06:32:59.526Z,5.10
2017-09-04T06:35:27.606Z,6.00
2017-09-04T06:37:55.221Z,5.23
2017-09-04T06:40:22.834Z,6.20
2017-09-04T06:42:51.535Z,6.53
2017-09-04T06:45:19.135Z,5.50
2017-09-04T06:47:46.734Z,6.30
2017-09-04T06:50:14.352Z,5.00
2017-09-04T06:52:41.954Z,6.37
2017-09-04T06:55:09.557Z,6.80
2017-09-04T06:57:37.159Z,6.80
2017-09-04T07:00:04.758Z,7.00
2017-09-04T07:02:32.773Z,6.73
2017-09-04T07:05:00.422Z,6.47
2017-09-04T07:07:28.030Z,6.40
2017-09-04T07:09:55.665Z,6.80
2017-09-04T07:12:23.278Z,7.00
2017-09-04T07:14:51.321Z,6.10
2017-09-04T07:17:18.957Z,6.73
2017-09-04T07:19:46.567Z,7.53
2017-09-04T07:22:14.180Z,7.10
2017-09-04T07:24:41.783Z,6.27
2017-09-04T07:27:09.810Z,7.13
2017-09-04T07:29:37.461Z,6.73
2017-09-04T07:32:05.065Z,7.57
2017-09-04T07:34:33.465Z,7.37
2017-09-04T07:37:01.072Z,8.10
2017-09-04T07:39:29.049Z,8.40
2017-09-04T07:41:56.658Z,7.93
2017-09-04T07:44:24.264Z,7.43
2017-09-04T07:46:51.899Z,8.20
2017-09-04T07:49:19.521Z,7.07
2017-09-04T07:51:47.469Z,7.07
2017-09-04T07:54:15.081Z,8.50
2017-09-04T07:56:42.761Z,8.20
2017-09-04T07:59:10.397Z,7.30
2017-09-04T08:01:38.094Z,7.63
2017-09-04T08:04:06.187Z,7.17
2017-09-04T08:06:33.839Z,7.33
2017-09-04T08:09:01.477Z,9.80
2017-09-04T08:11:29.094Z,9.43
2017-09-04T08:13:56.696Z,9.10
2017-09-04T08:16:24.705Z,8.90
2017-09-04T08:18:52.353Z,9.50
2017-09-04T08:21:19.972Z,8.07
2017-09-04T08:23:47.623Z,8.00
2017-09-04T08:26:15.228Z,8.43
2017-09-04T08:28:43.183Z,9.23
2017-09-04T08:31:10.817Z,8.57
2017-09-04T08:33:38.440Z,10.03
2017-09-04T08:36:06.065Z,8.63
2017-09-04T08:38:33.702Z,9.07
2017-09-04T08:41:01.674Z,8.80
2017-09-04T08:43:29.305Z,8.60
2017-09-04T08:45:56.956Z,8.83
2017-09-04T08:48:24.595Z,8.90
2017-09-04T08:50:52.227Z,10.63
2017-09-04T08:53:20.254Z,9.47
2017-09-04T08:55:48.656Z,8.80
2017-09-04T08:58:16.294Z,10.00
2017-09-04T09:00:43.929Z,7.87
2017-09-04T09:03:11.540Z,9.20
2017-09-04T09:05:39.521Z,8.57
2017-09-04T09:08:07.147Z,8.17
2017-09-04T09:10:34.781Z,7.67
2017-09-04T09:13:02.756Z,7.97
2017-09-04T09:15:30.385Z,8.43
2017-09-04T09:17:58.002Z,9.73
2017-09-04T09:20:25.649Z,9.17
2017-09-04T09:22:53.261Z,9.60
2017-09-04T09:25:21.234Z,9.13
2017-09-04T09:27:48.851Z,8.13
2017-09-04T09:30:16.465Z,9.17
2017-09-04T09:32:44.483Z,8.20
2017-09-04T09:35:12.118Z,8.73
2017-09-04T09:37:39.726Z,8.80
2017-09-04T09:40:07.357Z,8.20
2017-09-04T09:42:34.970Z,7.97
2017-09-04T09:45:02.881Z,7.70
2017-09-04T09:47:30.504Z,8.23
2017-09-04T09:49:58.145Z,6.70
2017-09-04T09:52:25.800Z,6.70
2017-09-04T09:54:53.415Z,7.07
2017-09-04T09:57:21.506Z,7.33
2017-09-04T09:59:49.133Z,5.50
2017-09-04T10:02:16.731Z,5.80
2017-09-04T10:04:45.115Z,5.47
2017-09-04T10:07:12.751Z,5.07
2017-09-04T10:09:40.794Z,4.53
2017-09-04T10:12:08.400Z,4.03
2017-09-04T10:14:36.012Z,4.33
2017-09-04T10:17:03.941Z,3.80
2017-09-04T10:19:33.493Z,3.93
2017-09-04T10:22:01.062Z,4.30
2017-09-04T10:24:28.932Z,3.67
2017-09-04T10:26:56.551Z,4.20
2017-09-04T10:29:24.485Z,3.13
2017-09-04T10:31:52.087Z,4.43
2017-09-04T10:34:19.719Z,3.40
2017-09-04T10:36:50.006Z,3.00
2017-09-04T10:39:18.093Z,2.83
2017-09-04T10:41:46.178Z,2.60
2017-09-04T10:44:14.027Z,2.30
2017-09-04T10:46:41.752Z,3.08
2017-09-04T10:49:09.529Z,2.87
2017-09-04T10:51:38.123Z,2.75
2017-09-04T10:54:06.109Z,2.83
2017-09-04T10:56:33.706Z,2.45
2017-09-04T10:59:01.321Z,2.50
2017-09-04T11:01:29.304Z,2.97
2017-09-04T11:03:56.906Z,2.83
2017-09-04T11:06:24.495Z,2.78
2017-09-04T11:08:52.440Z,2.83
2017-09-04T11:11:20.162Z,2.67
2017-09-04T11:13:47.925Z,3.30
2017-09-04T11:16:15.863Z,2.40
2017-09-04T11:18:43.473Z,3.13
2017-09-04T11:21:11.103Z,2.00
2017-09-04T11:23:39.074Z,2.47
2017-09-04T11:26:06.688Z,2.00
2017-09-04T11:28:35.169Z,2.27
2017-09-04T11:31:02.791Z,2.60
2017-09-04T11:33:30.399Z,2.40
2017-09-04T11:35:58.299Z,2.90
2017-09-04T11:38:25.911Z,2.90
2017-09-04T11:40:53.517Z,3.08
2017-09-04T11:43:21.275Z,2.78
2017-09-04T11:45:48.954Z,3.10
2017-09-04T11:48:16.980Z,3.10
2017-09-04T11:50:44.632Z,2.73
2017-09-04T11:53:12.297Z,2.97
2017-09-04T11:55:39.924Z,2.70
2017-09-04T11:58:08.399Z,2.63
2017-09-04T12:00:36.551Z,2.83
2017-09-04T12:03:04.159Z,2.63
2017-09-04T12:05:31.771Z,2.80
2017-09-04T12:07:59.397Z,2.87
2017-09-04T12:10:26.994Z,3.60
2017-09-04T12:12:54.987Z,3.67
2017-09-04T12:15:22.642Z,2.70
2017-09-04T12:17:50.237Z,3.30
2017-09-04T12:20:18.437Z,3.20
2017-09-04T12:22:47.035Z,3.30
2017-09-04T12:25:15.049Z,3.33
2017-09-04T12:27:42.647Z,3.80
2017-09-04T12:30:10.257Z,2.63
2017-09-04T12:32:38.227Z,3.33
2017-09-04T12:35:05.818Z,3.50
2017-09-04T12:37:33.427Z,3.40
2017-09-04T12:40:01.031Z,3.10
2017-09-04T12:42:28.630Z,3.03
2017-09-04T12:44:56.644Z,3.13
2017-09-04T12:47:24.269Z,3.07
2017-09-04T12:49:51.892Z,3.87
2017-09-04T12:52:19.507Z,4.00
2017-09-04T12:54:47.110Z,4.07
2017-09-04T12:57:15.026Z,3.93
2017-09-04T12:59:42.660Z,3.33
2017-09-04T13:02:10.257Z,4.17
2017-09-04T13:04:37.904Z,4.47
2017-09-04T13:07:05.566Z,4.53
2017-09-04T13:09:33.528Z,3.60
2017-09-04T13:15:04.433Z,3.60
2017-09-04T13:17:32.949Z,3.50
2017-09-04T13:20:06.705Z,4.33
2017-09-04T13:22:40.061Z,3.70
2017-09-04T13:28:31.586Z,3.10
2017-09-04T13:31:05.250Z,3.97
2017-09-04T13:33:38.535Z,3.23
2017-09-04T13:36:12.142Z,3.30
2017-09-04T13:38:42.542Z,3.27
2017-09-04T13:41:16.110Z,3.53
2017-09-04T13:43:49.417Z,3.50
2017-09-04T13:46:23.053Z,3.50
2017-09-04T13:48:56.185Z,4.07
2017-09-04T13:51:29.737Z,3.67
2017-09-04T13:57:07.249Z,3.10
2017-09-04T13:59:40.475Z,3.73
2017-09-04T14:05:16.705Z,2.80
2017-09-04T14:07:50.250Z,3.43
2017-09-04T14:10:23.513Z,3.80
2017-09-04T14:12:56.315Z,4.37
2017-09-04T14:15:29.607Z,4.70
2017-09-04T14:18:03.089Z,4.37
2017-09-04T14:20:30.711Z,3.80
2017-09-04T14:22:58.312Z,4.70
2017-09-04T14:25:26.020Z,3.93
2017-09-04T14:27:53.630Z,5.03
2017-09-04T14:30:21.617Z,5.53
2017-09-04T14:32:49.239Z,5.90
2017-09-04T14:35:16.856Z,4.87
2017-09-04T14:37:44.478Z,4.77
2017-09-04T14:40:13.607Z,4.40
2017-09-04T14:42:41.576Z,4.67
2017-09-04T14:45:19.971Z,3.90
2017-09-04T14:47:48.767Z,4.00
2017-09-04T14:50:16.367Z,4.30
2017-09-04T14:52:43.951Z,3.97
2017-09-04T14:55:11.565Z,3.60
2017-09-04T14:57:39.164Z,4.17
2017-09-04T15:00:07.077Z,4.87
2017-09-04T15:02:34.749Z,4.23
2017-09-04T15:05:02.354Z,3.40
2017-09-04T15:07:29.979Z,3.80
2017-09-04T15:09:57.594Z,3.77
2017-09-04T15:12:25.552Z,3.40
2017-09-04T15:14:53.146Z,3.70
2017-09-04T15:17:20.749Z,3.80
2017-09-04T15:19:48.371Z,4.23
2017-09-04T15:22:15.987Z,5.17
2017-09-04T15:24:43.994Z,3.70
2017-09-04T15:27:11.585Z,4.80
2017-09-04T15:29:40.114Z,4.63
2017-09-04T15:32:08.122Z,3.33
2017-09-04T15:34:35.726Z,3.83
2017-09-04T15:37:03.329Z,3.77
2017-09-04T15:39:31.419Z,3.60
2017-09-04T15:41:59.024Z,4.17
2017-09-04T15:44:26.634Z,4.20
2017-09-04T15:46:54.255Z,4.30
2017-09-04T15:49:21.893Z,3.90
2017-09-04T15:51:49.935Z,3.23
2017-09-04T15:54:17.522Z,4.00
2017-09-04T15:56:45.111Z,4.20
2017-09-04T15:59:12.751Z,3.90
2017-09-04T16:01:40.373Z,3.60
2017-09-04T16:04:08.323Z,3.43
2017-09-04T16:06:38.677Z,4.23
2017-09-04T16:09:06.352Z,4.30
2017-09-04T16:14:35.610Z,4.27
2017-09-04T16:17:23.055Z,4.80
2017-09-04T16:19:54.608Z,4.43
2017-09-04T16:22:28.367Z,4.00
2017-09-04T16:24:55.980Z,4.70
2017-09-04T16:27:36.867Z,4.40
2017-09-04T16:30:06.920Z,4.63
2017-09-04T16:35:52.517Z,4.20
2017-09-04T16:38:22.903Z,3.97
2017-09-04T16:40:54.235Z,3.63
2017-09-04T16:43:23.342Z,3.27
2017-09-04T16:46:05.753Z,4.40
2017-09-04T16:48:33.737Z,4.03
2017-09-04T16:51:17.983Z,3.57
2017-09-04T16:53:47.899Z,3.47
2017-09-04T16:56:16.239Z,3.30
2017-09-04T16:58:43.841Z,4.00
2017-09-04T17:01:12.226Z,4.27
2017-09-04T17:03:40.608Z,3.50
2017-09-04T17:06:08.562Z,3.23
2017-09-04T17:08:37.557Z,3.70
2017-09-04T17:11:05.153Z,3.70
2017-09-04T17:13:32.783Z,3.73
2017-09-04T17:16:03.004Z,3.40
2017-09-04T17:21:33.945Z,4.53
2017-09-04T17:24:02.842Z,4.73
2017-09-04T17:26:30.453Z,4.20
2017-09-04T17:28:58.072Z,3.30
2017-09-04T17:31:25.976Z,3.40
2017-09-04T17:33:53.581Z,4.03
2017-09-04T17:36:21.193Z,2.80
2017-09-04T17:38:49.122Z,2.97
2017-09-04T17:41:16.730Z,2.53
2017-09-04T17:43:44.342Z,2.97
2017-09-04T17:46:12.314Z,2.90
2017-09-04T17:48:39.914Z,2.90
2017-09-04T17:51:07.563Z,2.80
2017-09-04T17:53:35.227Z,2.50
2017-09-04T17:56:02.813Z,2.80
2017-09-04T17:58:30.788Z,2.80
2017-09-04T18:00:58.400Z,3.20
2017-09-04T18:03:26.018Z,2.50
2017-09-04T18:05:53.955Z,2.80
2017-09-04T18:08:21.578Z,2.37
2017-09-04T18:10:49.186Z,2.80
2017-09-04T18:13:17.033Z,2.73
2017-09-04T18:15:44.645Z,2.83
2017-09-04T18:18:12.590Z,2.70
2017-09-04T18:20:40.247Z,3.07
2017-09-04T18:23:07.907Z,3.00
2017-09-04T18:25:35.568Z,3.10
2017-09-04T18:28:03.179Z,3.20
2017-09-04T18:30:32.065Z,2.50
2017-09-04T18:32:59.703Z,3.00
2017-09-04T18:35:28.908Z,3.30
2017-09-04T18:37:56.541Z,3.13
2017-09-04T18:40:24.149Z,3.13
2017-09-04T18:42:52.140Z,3.07
2017-09-04T18:45:19.739Z,3.10
2017-09-04T18:47:47.349Z,2.87
2017-09-04T18:50:14.974Z,3.00
2017-09-04T18:52:42.621Z,3.33
2017-09-04T18:55:10.641Z,3.00
2017-09-04T18:57:38.237Z,2.90
2017-09-04T19:00:05.842Z,2.73
2017-09-04T19:02:33.491Z,3.60
2017-09-04T19:05:01.095Z,3.20
2017-09-04T19:07:29.134Z,3.80
2017-09-04T19:09:56.762Z,3.03
2017-09-04T19:12:24.378Z,3.43
2017-09-04T19:14:52.054Z,3.93
2017-09-04T19:17:19.652Z,3.63
2017-09-04T19:19:47.644Z,3.00
2017-09-04T19:22:15.266Z,3.43
2017-09-04T19:24:42.908Z,3.00
2017-09-04T19:27:10.533Z,3.13
2017-09-04T19:29:38.146Z,3.20
2017-09-04T19:32:06.144Z,2.80
2017-09-04T19:34:33.749Z,2.90
2017-09-04T19:37:01.363Z,3.30
2017-09-04T19:39:28.994Z,3.03
2017-09-04T19:41:56.596Z,3.90
2017-09-04T19:44:24.545Z,3.30
2017-09-04T19:46:52.155Z,2.90
2017-09-04T19:49:19.791Z,4.10
2017-09-04T19:51:47.425Z,3.57
2017-09-04T19:54:15.074Z,3.40
2017-09-04T19:56:43.048Z,3.90
2017-09-04T19:59:10.658Z,3.83
2017-09-04T20:01:38.373Z,3.40
2017-09-04T20:04:06.028Z,4.23
2017-09-04T20:06:33.640Z,3.60
2017-09-04T20:09:01.702Z,3.97
2017-09-04T20:11:29.322Z,3.43
2017-09-04T20:13:56.933Z,3.30
2017-09-04T20:16:24.852Z,4.00
2017-09-04T20:18:52.999Z,2.90
2017-09-04T20:21:20.605Z,3.70
2017-09-04T20:23:48.616Z,3.50
2017-09-04T20:26:16.227Z,3.50
2017-09-04T20:28:43.821Z,3.53
2017-09-04T20:31:11.782Z,3.80
2017-09-04T20:33:39.432Z,4.03
2017-09-04T20:36:07.059Z,4.00
2017-09-04T20:38:34.983Z,4.27
2017-09-04T20:41:02.581Z,4.23
2017-09-04T20:43:30.185Z,3.97
2017-09-04T20:45:57.816Z,4.43
2017-09-04T20:48:26.333Z,4.20
2017-09-04T20:50:54.332Z,3.90
2017-09-04T20:53:21.938Z,4.20
2017-09-04T20:55:49.585Z,4.27
2017-09-04T20:58:17.214Z,3.10
2017-09-04T21:00:45.585Z,3.77
2017-09-04T21:03:13.540Z,3.43
2017-09-04T21:05:41.153Z,4.80
2017-09-04T21:08:08.747Z,3.33
2017-09-04T21:10:36.751Z,3.30
2017-09-04T21:13:04.358Z,3.50
2017-09-04T21:15:31.965Z,3.37
2017-09-04T21:17:59.588Z,3.30
2017-09-04T21:20:27.191Z,3.40
2017-09-04T21:22:55.146Z,3.57
2017-09-04T21:25:22.744Z,4.33
2017-09-04T21:27:50.344Z,4.17
2017-09-04T21:30:18.349Z,3.77
2017-09-04T21:32:45.942Z,4.17
2017-09-04T21:35:13.535Z,3.90
2017-09-04T21:37:41.147Z,12.30
2017-09-04T21:40:08.766Z,12.90
2017-09-04T21:42:36.745Z,18.80
2017-09-04T21:45:04.347Z,14.30
2017-09-04T21:47:31.974Z,12.57
2017-09-04T21:49:59.902Z,6.17
2017-09-04T21:52:27.527Z,5.80
2017-09-04T21:54:55.114Z,3.70
2017-09-04T21:57:22.734Z,3.60
2017-09-04T21:59:50.334Z,3.83
2017-09-04T22:02:18.249Z,4.00
2017-09-04T22:04:45.856Z,3.70
2017-09-04T22:07:13.455Z,3.60
2017-09-04T22:09:41.085Z,4.53
2017-09-04T22:12:08.699Z,6.53
2017-09-04T22:14:36.607Z,5.90
2017-09-04T22:17:04.205Z,5.13
2017-09-04T22:19:31.825Z,4.60
2017-09-04T22:21:59.460Z,4.67
2017-09-04T22:24:27.057Z,4.30
2017-09-04T22:26:54.996Z,4.60
2017-09-04T22:29:22.594Z,5.27
